.
WxDataArchive / Data Records for 2010-09-12
2010-09-11 September 2010 2010-09-13

Data Records for Sunday, 12 September 2010

Time	Temp	Chill	HIndex	Humid	Dewpt	 Wind 	HiWind	WindDir	Rain 	Barom 
-----	----	-----	------	-----	-----	------	------	-------	-----	----- 
00:00	59.6	59.6	59.6	96	58.5	0	1	90	0.00	29.914 
00:05	59.6	59.6	59.6	96	58.5	0	0	---	0.00	29.914 
00:10	59.6	59.6	59.6	96	58.5	0	1	90	0.00	29.914 
00:15	59.6	59.6	59.6	96	58.5	0	0	---	0.00	29.914 
00:20	59.6	59.6	59.6	96	58.5	0	0	---	0.00	29.914 
00:25	59.5	59.5	59.5	96	58.4	0	0	---	0.00	29.914 
00:30	59.5	59.5	59.5	96	58.4	0	1	90	0.00	29.921 
00:35	59.5	59.5	59.5	96	58.4	0	0	---	0.00	29.921 
00:40	59.6	59.6	59.6	96	58.5	0	1	90	0.00	29.921 
00:45	59.6	59.6	59.6	96	58.5	0	0	---	0.00	29.923 
00:50	59.6	59.6	59.6	96	58.5	0	0	---	0.00	29.923 
00:55	59.8	59.8	59.8	96	58.7	0	1	90	0.00	29.923 
01:00	59.8	59.8	59.8	96	58.7	0	1	90	0.00	29.927 
01:05	59.9	59.9	59.9	96	58.8	0	1	90	0.00	29.927 
01:10	59.9	59.9	59.9	96	58.8	0	1	90	0.00	29.927 
01:15	59.9	59.9	59.9	96	58.8	0	1	90	0.00	29.935 
01:20	59.9	59.9	59.9	96	58.8	0	1	90	0.00	29.935 
01:25	59.9	59.9	59.9	96	58.8	0	2	90	0.00	29.935 
01:30	60.1	60.1	60.1	96	59.0	0	2	90	0.00	29.941 
01:35	60.1	60.1	60.1	96	59.0	0	2	90	0.00	29.941 
01:40	60.1	60.1	60.1	96	59.0	0	2	90	0.00	29.941 
01:45	60.1	60.1	60.1	96	59.0	0	2	90	0.00	29.945 
01:50	60.2	60.2	60.2	96	59.1	0	1	90	0.00	29.945 
01:55	60.2	60.2	60.2	96	59.1	0	1	90	0.00	29.945 
02:00	60.2	60.2	60.2	96	59.1	0	1	90	0.00	29.951 
02:05	60.4	60.4	60.4	96	59.3	0	1	90	0.00	29.951 
02:10	60.2	60.2	60.2	96	59.1	0	1	90	0.00	29.951 
02:15	60.1	60.1	60.1	96	59.0	0	0	---	0.00	29.948 
02:20	60.1	60.1	60.1	96	59.0	0	0	---	0.00	29.948 
02:25	59.9	59.9	59.9	96	58.8	0	0	---	0.00	29.948 
02:30	59.9	59.9	59.9	96	58.8	0	1	90	0.00	29.952 
02:35	59.9	59.9	59.9	96	58.8	0	1	90	0.00	29.952 
02:40	60.1	60.1	60.1	96	59.0	0	1	90	0.00	29.952 
02:45	60.1	60.1	60.1	96	59.0	0	0	---	0.00	29.952 
02:50	60.1	60.1	60.1	96	59.0	0	1	90	0.00	29.952 
02:55	60.1	60.1	60.1	96	59.0	0	1	90	0.00	29.952 
03:00	60.1	60.1	60.1	96	59.0	0	1	90	0.00	29.953 
03:05	60.1	60.1	60.1	96	59.0	0	1	90	0.00	29.953 
03:10	60.1	60.1	60.1	96	59.0	0	1	90	0.00	29.953 
03:15	59.9	59.9	59.9	96	58.8	0	1	90	0.00	29.953 
03:20	59.8	59.8	59.8	96	58.7	0	1	90	0.00	29.953 
03:25	59.8	59.8	59.8	96	58.7	0	0	---	0.00	29.953 
03:30	59.6	59.6	59.6	96	58.5	0	0	---	0.00	29.955 
03:35	59.5	59.5	59.5	96	58.4	0	0	---	0.00	29.955 
03:40	59.3	59.3	59.3	96	58.2	0	0	---	0.00	29.955 
03:45	59.2	59.2	59.2	96	58.1	0	0	---	0.00	29.956 
03:50	59.2	59.2	59.2	96	58.1	0	0	---	0.00	29.956 
03:55	59.2	59.2	59.2	96	58.1	0	0	---	0.00	29.956 
04:00	59.3	59.3	59.3	96	58.2	0	1	90	0.00	29.963 
04:05	59.3	59.3	59.3	96	58.2	0	1	90	0.00	29.963 
04:10	59.3	59.3	59.3	96	58.2	0	2	90	0.00	29.963 
04:15	59.2	59.2	59.2	96	58.1	0	1	90	0.00	29.968 
04:20	59.0	59.0	59.0	96	57.9	0	1	90	0.00	29.968 
04:25	58.9	58.9	58.9	96	57.8	0	1	90	0.00	29.968 
04:30	58.7	58.7	58.7	96	57.6	0	1	90	0.00	29.971 
04:35	58.6	58.6	58.6	96	57.5	0	1	90	0.00	29.971 
04:40	58.4	58.4	58.4	96	57.3	0	0	---	0.00	29.971 
04:45	58.3	58.3	58.3	96	57.2	0	1	90	0.00	29.975 
04:50	58.1	58.1	58.1	96	57.0	0	0	---	0.00	29.975 
04:55	58.0	58.0	58.0	96	56.9	0	1	90	0.00	29.975 
05:00	58.0	58.0	58.0	96	56.9	0	0	---	0.00	29.976 
05:05	57.8	57.8	57.8	96	56.7	0	0	---	0.00	29.976 
05:10	57.6	57.6	57.6	96	56.5	0	0	---	0.00	29.976 
05:15	57.5	57.5	57.5	96	56.4	0	0	---	0.00	29.982 
05:20	57.5	57.5	57.5	96	56.4	0	0	---	0.00	29.982 
05:25	57.3	57.3	57.3	96	56.2	0	0	---	0.00	29.982 
05:30	57.3	57.3	57.3	96	56.2	0	0	---	0.00	29.987 
05:35	57.2	57.2	57.2	96	56.1	0	0	---	0.00	29.987 
05:40	57.0	57.0	57.0	96	55.9	0	0	---	0.00	29.987 
05:45	57.0	57.0	57.0	96	55.9	0	0	---	0.00	29.991 
05:50	56.9	56.9	56.9	96	55.8	0	1	90	0.00	29.991 
05:55	56.9	56.9	56.9	96	55.8	0	0	---	0.00	29.991 
06:00	56.7	56.7	56.7	96	55.6	0	0	---	0.00	29.995 
06:05	56.6	56.6	56.6	96	55.5	0	0	---	0.00	29.995 
06:10	56.6	56.6	56.6	96	55.5	0	1	90	0.00	29.995 
06:15	56.5	56.5	56.5	96	55.4	0	1	90	0.00	30.005 
06:20	56.5	56.5	56.5	96	55.4	0	1	90	0.00	30.005 
06:25	56.3	56.3	56.3	96	55.2	0	1	90	0.00	30.005 
06:30	56.3	56.3	56.3	96	55.2	0	1	90	0.00	30.006 
06:35	56.2	56.2	56.2	96	55.1	0	1	90	0.00	30.006 
06:40	56.2	56.2	56.2	96	55.1	0	1	90	0.00	30.006 
06:45	56.0	56.0	56.0	96	54.9	0	1	90	0.00	30.008 
06:50	55.9	55.9	55.9	96	54.8	0	1	90	0.00	30.008 
06:55	55.9	55.9	55.9	96	54.8	0	1	90	0.00	30.008 
07:00	55.7	55.7	55.7	96	54.6	0	1	90	0.00	30.016 
07:05	55.7	55.7	55.7	96	54.6	0	0	---	0.00	30.016 
07:10	55.6	55.6	55.6	96	54.5	0	0	---	0.00	30.016 
07:15	55.6	55.6	55.6	96	54.5	0	0	---	0.00	30.022 
07:20	55.4	55.4	55.4	96	54.3	0	0	---	0.00	30.022 
07:25	55.4	55.4	55.4	96	54.3	0	1	90	0.00	30.022 
07:30	55.4	55.4	55.4	96	54.3	0	0	---	0.00	30.026 
07:35	55.3	55.3	55.3	96	54.2	0	1	90	0.00	30.026 
07:40	55.3	55.3	55.3	96	54.2	0	1	90	0.00	30.026 
07:45	55.4	55.4	55.4	96	54.3	0	1	90	0.00	30.029 
07:50	55.4	55.4	55.4	96	54.3	0	1	90	0.00	30.029 
07:55	55.6	55.6	55.6	96	54.5	0	1	90	0.00	30.029 
08:00	55.6	55.6	55.6	96	54.5	0	1	90	0.00	30.038 
08:05	55.7	55.7	55.7	96	54.6	0	1	90	0.00	30.038 
08:10	55.9	55.9	55.9	96	54.8	0	0	---	0.00	30.038 
08:15	56.2	56.2	56.2	96	55.1	0	1	90	0.00	30.041 
08:20	56.3	56.3	56.3	96	55.2	0	1	90	0.00	30.041 
08:25	56.6	56.6	56.6	96	55.5	0	1	90	0.00	30.041 
08:30	56.7	56.7	56.7	96	55.6	0	1	90	0.00	30.045 
08:35	56.9	56.9	56.9	96	55.8	0	1	90	0.00	30.045 
08:40	57.2	57.2	57.2	96	56.1	0	1	90	0.00	30.045 
08:45	57.3	57.3	57.3	96	56.2	0	2	90	0.00	30.051 
08:50	57.5	57.5	57.5	96	56.4	0	2	90	0.00	30.051 
08:55	57.6	57.6	57.6	96	56.5	0	2	90	0.00	30.051 
09:00	58.0	58.0	58.0	96	56.9	0	1	90	0.00	30.051 
09:05	58.4	58.4	58.4	96	57.3	0	2	90	0.00	30.051 
09:10	58.7	58.7	58.7	96	57.6	0	2	90	0.00	30.051 
09:15	59.0	59.0	59.0	95	57.6	1	3	270	0.00	30.052 
09:20	59.5	59.5	59.5	94	57.8	1	2	270	0.00	30.052 
09:25	59.8	59.8	59.8	93	57.8	1	3	270	0.00	30.052 
09:30	60.2	60.2	60.2	92	57.9	1	2	270	0.00	30.060 
09:35	60.5	60.5	60.5	92	58.2	1	3	270	0.00	30.060 
09:40	60.9	60.9	60.9	90	57.9	1	3	270	0.00	30.060 
09:45	61.5	61.5	61.5	89	58.2	1	3	270	0.00	30.063 
09:50	62.0	62.0	62.0	87	58.1	1	3	270	0.00	30.063 
09:55	62.6	62.6	62.6	86	58.3	0	1	270	0.00	30.063 
10:00	63.2	63.2	63.2	84	58.3	1	4	270	0.00	30.063 
10:05	63.9	63.9	63.9	82	58.3	1	5	270	0.00	30.063 
10:10	64.3	64.3	64.3	79	57.6	2	4	292	0.00	30.063 
10:15	64.8	64.8	64.8	78	57.8	2	5	292	0.00	30.065 
10:20	65.3	65.3	65.3	77	57.9	1	3	292	0.00	30.065 
10:25	65.8	65.8	65.8	77	58.4	1	3	315	0.00	30.065 
10:30	66.4	66.4	66.4	75	58.2	1	3	315	0.00	30.070 
10:35	66.6	66.6	66.6	72	57.3	2	4	270	0.00	30.070 
10:40	67.1	67.1	67.1	73	58.1	1	3	292	0.00	30.070 
10:45	67.3	67.3	67.3	68	56.4	2	3	292	0.00	30.074 
10:50	67.4	67.4	67.4	69	56.9	2	5	292	0.00	30.074 
10:55	67.6	67.6	67.6	66	55.8	2	3	292	0.00	30.074 
11:00	67.9	67.9	67.9	65	55.7	3	6	270	0.00	30.073 
11:05	68.3	68.3	68.3	65	56.1	1	3	270	0.00	30.073 
11:10	68.6	68.6	68.6	63	55.5	2	5	270	0.00	30.073 
11:15	69.1	69.1	69.1	64	56.4	1	3	270	0.00	30.075 
11:20	69.6	69.6	69.6	64	56.9	1	4	270	0.00	30.075 
11:25	69.6	69.6	69.6	60	55.1	2	4	270	0.00	30.075 
11:30	69.8	69.8	69.8	61	55.7	1	3	315	0.00	30.074 
11:35	70.1	70.1	70.1	57	54.1	2	5	270	0.00	30.074 
11:40	70.4	70.4	70.4	54	52.9	2	5	270	0.00	30.074 
11:45	70.9	70.9	70.9	56	54.4	1	4	292	0.00	30.077 
11:50	71.5	71.5	71.5	55	54.5	1	3	315	0.00	30.077 
11:55	72.0	72.0	72.0	50	52.3	1	4	270	0.00	30.077 
12:00	71.8	71.8	71.8	50	52.1	2	5	292	0.00	30.073 
12:05	71.8	71.8	71.8	49	51.6	2	5	315	0.00	30.073 
12:10	72.0	72.0	72.0	51	52.9	2	4	292	0.00	30.073 
12:15	72.7	72.7	72.7	53	54.6	1	3	292	0.00	30.074 
12:20	72.8	72.8	72.8	47	51.4	2	4	338	0.00	30.074 
12:25	72.7	72.7	72.7	47	51.3	3	5	270	0.00	30.074 
12:30	72.8	72.8	72.8	48	52.0	2	4	270	0.00	30.076 
12:35	73.2	73.2	73.2	47	51.7	1	3	270	0.00	30.076 
12:40	73.2	73.2	73.2	48	52.3	2	5	270	0.00	30.076 
12:45	73.0	73.0	73.0	48	52.1	2	4	292	0.00	30.075 
12:50	73.3	73.3	73.3	47	51.8	3	5	270	0.00	30.075 
12:55	73.5	73.5	73.5	48	52.6	2	5	292	0.00	30.075 
13:00	74.0	74.0	74.0	46	51.9	2	6	315	0.00	30.074 
13:05	74.2	74.2	74.2	44	50.9	3	9	270	0.00	30.074 
13:10	74.2	74.2	74.2	44	50.9	3	7	270	0.00	30.074 
13:15	74.2	74.2	74.2	43	50.2	2	6	292	0.00	30.076 
13:20	74.7	74.7	74.7	42	50.1	3	7	292	0.00	30.076 
13:25	75.1	75.1	77.6	42	50.4	2	5	315	0.00	30.076 
13:30	75.3	75.3	77.6	42	50.6	3	7	270	0.00	30.078 
13:35	75.1	75.1	77.6	42	50.4	3	9	270	0.00	30.078 
13:40	75.1	75.1	77.6	42	50.4	2	5	338	0.00	30.078 
13:45	75.3	75.3	77.7	43	51.2	2	7	270	0.00	30.074 
13:50	75.1	75.1	77.6	42	50.4	2	9	270	0.00	30.074 
13:55	75.3	75.3	77.6	42	50.6	2	4	292	0.00	30.074 
14:00	75.6	75.6	77.7	42	50.9	2	5	292	0.00	30.072 
14:05	75.4	75.4	77.7	43	51.3	2	5	270	0.00	30.072 
14:10	75.3	75.3	77.6	41	50.0	3	6	292	0.00	30.072 
14:15	75.4	75.4	77.7	43	51.3	1	4	292	0.00	30.071 
14:20	75.6	75.6	77.7	41	50.2	1	5	315	0.00	30.071 
14:25	75.6	75.6	77.6	39	48.9	3	6	292	0.00	30.071 
14:30	76.3	76.3	77.8	37	48.1	3	7	270	0.00	30.061 
14:35	76.5	76.5	77.9	37	48.3	3	7	270	0.00	30.061 
14:40	76.7	76.7	78.0	37	48.4	2	7	270	0.00	30.061 
14:45	77.0	77.0	78.0	36	48.0	3	6	270	0.00	30.059 
14:50	77.0	77.0	78.0	35	47.2	4	6	292	0.00	30.059 
14:55	76.8	76.8	77.9	35	47.1	3	5	315	0.00	30.059 
15:00	77.2	77.2	78.2	37	48.9	1	4	292	0.00	30.057 
15:05	77.0	77.0	78.0	35	47.2	2	5	270	0.00	30.057 
15:10	76.7	76.7	77.9	36	47.7	2	7	315	0.00	30.057 
15:15	76.7	76.7	77.9	35	47.0	3	7	270	0.00	30.060 
15:20	76.7	76.7	77.9	36	47.7	2	9	270	0.00	30.060 
15:25	76.1	76.1	77.7	36	47.2	1	5	270	0.00	30.060 
15:30	76.3	76.3	77.6	33	45.1	2	6	270	0.00	30.059 
15:35	76.7	76.7	77.7	32	44.6	3	5	270	0.00	30.059 
15:40	76.7	76.7	77.8	34	46.2	3	7	270	0.00	30.059 
15:45	77.0	77.0	77.9	33	45.7	3	9	315	0.00	30.055 
15:50	77.4	77.4	77.9	31	44.4	2	7	315	0.00	30.055 
15:55	77.2	77.2	77.9	32	45.0	3	7	292	0.00	30.055 
16:00	77.7	77.7	78.2	33	46.3	2	5	22	0.00	30.053 
16:05	77.9	77.9	78.3	33	46.5	3	6	270	0.00	30.053 
16:10	77.9	77.9	78.2	32	45.6	2	4	292	0.00	30.053 
16:15	77.9	77.9	78.2	32	45.6	2	6	292	0.00	30.049 
16:20	77.9	77.9	78.2	32	45.6	3	9	270	0.00	30.049 
16:25	77.7	77.7	78.1	32	45.5	3	7	292	0.00	30.049 
16:30	77.6	77.6	78.0	31	44.5	2	7	338	0.00	30.045 
16:35	77.7	77.7	78.1	32	45.5	2	6	270	0.00	30.045 
16:40	77.6	77.6	78.0	31	44.5	3	9	270	0.00	30.045 
16:45	77.6	77.6	78.1	33	46.2	2	5	315	0.00	30.039 
16:50	77.7	77.7	78.2	33	46.3	3	6	292	0.00	30.039 
16:55	77.7	77.7	78.1	32	45.5	2	4	270	0.00	30.039 
17:00	77.9	77.9	78.3	33	46.5	2	6	270	0.00	30.038 
17:05	77.9	77.9	78.1	31	44.8	3	6	270	0.00	30.038 
17:10	77.9	77.9	78.1	31	44.8	1	5	270	0.00	30.038 
17:15	78.1	78.1	78.2	30	44.1	2	5	292	0.00	30.040 
17:20	77.9	77.9	78.0	29	43.1	2	5	270	0.00	30.040 
17:25	77.9	77.9	77.9	28	42.1	1	5	338	0.00	30.040 
17:30	77.9	77.9	78.0	29	43.1	2	5	270	0.00	30.035 
17:35	78.1	78.1	78.2	30	44.1	1	3	315	0.00	30.035 
17:40	78.1	78.1	78.0	27	41.4	2	5	315	0.00	30.035 
17:45	77.9	77.9	77.9	28	42.1	2	7	270	0.00	30.037 
17:50	77.9	77.9	77.9	28	42.1	2	5	292	0.00	30.037 
17:55	77.9	77.9	77.9	28	42.1	1	3	315	0.00	30.037 
18:00	77.9	77.9	77.9	27	41.2	3	7	270	0.00	30.038 
18:05	77.9	77.9	77.9	28	42.1	2	5	270	0.00	30.038 
18:10	77.9	77.9	77.9	28	42.1	2	4	270	0.00	30.038 
18:15	77.7	77.7	77.8	28	42.0	2	5	270	0.00	30.040 
18:20	77.6	77.6	77.7	27	41.0	1	5	315	0.00	30.040 
18:25	77.6	77.6	77.8	28	41.9	3	6	270	0.00	30.040 
18:30	77.4	77.4	77.8	29	42.6	2	5	270	0.00	30.040 
18:35	77.2	77.2	77.7	29	42.5	1	3	270	0.00	30.040 
18:40	77.0	77.0	77.6	29	42.3	0	3	270	0.00	30.040 
18:45	77.0	77.0	77.5	28	41.4	1	4	292	0.00	30.041 
18:50	76.8	76.8	77.5	28	41.2	1	3	270	0.00	30.041 
18:55	76.7	76.7	77.4	28	41.1	1	2	270	0.00	30.041 
19:00	76.7	76.7	77.5	29	42.0	0	2	270	0.00	30.037 
19:05	76.5	76.5	77.4	29	41.9	0	1	270	0.00	30.037 
19:10	76.3	76.3	77.3	29	41.7	0	2	270	0.00	30.037 
19:15	76.1	76.1	77.3	30	42.4	0	0	---	0.00	30.036 
19:20	75.8	75.8	77.3	32	43.8	0	1	270	0.00	30.036 
19:25	75.4	75.4	77.3	34	45.1	0	0	---	0.00	30.036 
19:30	74.9	74.9	74.9	34	44.6	0	0	---	0.00	30.039 
19:35	74.4	74.4	74.4	36	45.7	0	0	---	0.00	30.039 
19:40	73.9	73.9	73.9	37	46.0	0	0	---	0.00	30.039 
19:45	73.3	73.3	73.3	38	46.1	0	0	---	0.00	30.033 
19:50	72.7	72.7	72.7	39	46.3	0	0	---	0.00	30.033 
19:55	72.0	72.0	72.0	41	47.0	0	0	---	0.00	30.033 
20:00	71.3	71.3	71.3	43	47.6	0	0	---	0.00	30.030 
20:05	70.6	70.6	70.6	44	47.6	0	0	---	0.00	30.030 
20:10	69.8	69.8	69.8	45	47.5	0	0	---	0.00	30.030 
20:15	69.1	69.1	69.1	46	47.4	0	0	---	0.00	30.030 
20:20	68.4	68.4	68.4	48	47.9	0	0	---	0.00	30.030 
20:25	67.8	67.8	67.8	50	48.5	0	0	---	0.00	30.030 
20:30	67.1	67.1	67.1	52	48.9	0	0	---	0.00	30.030 
20:35	66.4	66.4	66.4	53	48.7	0	0	---	0.00	30.030 
20:40	65.6	65.6	65.6	54	48.5	0	0	---	0.00	30.030 
20:45	65.2	65.2	65.2	55	48.6	0	0	---	0.00	30.032 
20:50	64.7	64.7	64.7	56	48.6	0	0	---	0.00	30.032 
20:55	64.2	64.2	64.2	57	48.6	0	0	---	0.00	30.032 
21:00	63.9	63.9	63.9	59	49.3	0	0	---	0.00	30.029 
21:05	63.4	63.4	63.4	60	49.3	0	0	---	0.00	30.029 
21:10	63.1	63.1	63.1	62	49.9	0	0	---	0.00	30.029 
21:15	62.6	62.6	62.6	63	49.8	0	0	---	0.00	30.027 
21:20	62.1	62.1	62.1	64	49.8	0	0	---	0.00	30.027 
21:25	61.8	61.8	61.8	64	49.5	0	0	---	0.00	30.027 
21:30	61.6	61.6	61.6	64	49.3	0	0	---	0.00	30.029 
21:35	61.3	61.3	61.3	64	49.0	0	0	---	0.00	30.029 
21:40	61.2	61.2	61.2	63	48.5	0	0	---	0.00	30.029 
21:45	61.0	61.0	61.0	64	48.7	0	0	---	0.00	30.029 
21:50	60.9	60.9	60.9	64	48.6	0	0	---	0.00	30.029 
21:55	60.9	60.9	60.9	64	48.6	0	0	---	0.00	30.029 
22:00	61.0	61.0	61.0	64	48.7	0	0	---	0.00	30.022 
22:05	61.0	61.0	61.0	64	48.7	0	0	---	0.00	30.022 
22:10	61.0	61.0	61.0	64	48.7	0	0	---	0.00	30.022 
22:15	61.0	61.0	61.0	65	49.1	0	0	---	0.00	30.015 
22:20	61.0	61.0	61.0	65	49.1	0	0	---	0.00	30.015 
22:25	61.0	61.0	61.0	65	49.1	0	0	---	0.00	30.015 
22:30	60.9	60.9	60.9	65	49.1	0	0	---	0.00	30.014 
22:35	60.9	60.9	60.9	65	49.1	0	0	---	0.00	30.014 
22:40	60.9	60.9	60.9	65	49.1	0	0	---	0.00	30.014 
22:45	60.7	60.7	60.7	65	48.9	0	0	---	0.00	30.014 
22:50	60.7	60.7	60.7	66	49.3	0	0	---	0.00	30.014 
22:55	60.5	60.5	60.5	66	49.1	0	0	---	0.00	30.014 
23:00	60.4	60.4	60.4	66	49.0	0	0	---	0.00	30.013 
23:05	60.4	60.4	60.4	66	49.0	0	0	---	0.00	30.013 
23:10	60.2	60.2	60.2	66	48.8	0	0	---	0.00	30.013 
23:15	60.2	60.2	60.2	66	48.8	0	0	---	0.00	30.009 
23:20	60.2	60.2	60.2	66	48.8	0	0	---	0.00	30.009 
23:25	60.2	60.2	60.2	66	48.8	0	0	---	0.00	30.009 
23:30	60.4	60.4	60.4	65	48.6	0	0	---	0.00	30.011 
23:35	60.5	60.5	60.5	65	48.7	0	0	---	0.00	30.011 
23:40	60.9	60.9	60.9	65	49.1	0	0	---	0.00	30.011 
23:45	61.2	61.2	61.2	64	48.9	0	0	---	0.00	30.010 
23:50	61.5	61.5	61.5	64	49.2	0	0	---	0.00	30.010 
23:55	61.5	61.5	61.5	64	49.2	0	0	---	0.00	30.010 

CoCoRaHS
IN-AL-39
A2 Web Hosting
Creative Commons License
GoDaddy
search engine by freefind advanced

loaded 2018-11-21 00:32:08 • last modified 2010-11-18 10:43:29
Privacy PolicyDisclaimer
• wx.awcolley.com is powered by PmWiki v.2002016 •
• all content (unless otherwise noted) © 2018 A W Colley